Cherokee Observed Data For Previous 48 Hours

Caption
Day and Hour Reservoir Elevation (behind dam)* Tailwater Elevation (below dam)* Average Hourly Discharge*
9/20/2018 2 AM EDT 1,062.60 926.16 8,481
9/20/2018 3 AM EDT 1,062.59 926.15 8,468
9/20/2018 4 AM EDT 1,062.58 926.16 8,478
9/20/2018 5 AM EDT 1,062.57 926.17 8,504
9/20/2018 6 AM EDT 1,062.57 926.15 8,481
9/20/2018 7 AM EDT 1,062.56 926.16 8,479
9/20/2018 8 AM EDT 1,062.55 926.14 8,449
9/20/2018 9 AM EDT 1,062.55 926.15 8,446
9/20/2018 10 AM EDT 1,062.54 926.15 8,506
9/20/2018 11 AM EDT 1,062.53 926.16 8,500
9/20/2018 12 PM EDT 1,062.52 926.16 8,499
9/20/2018 1 PM EDT 1,062.51 926.16 8,512
9/20/2018 2 PM EDT 1,062.51 926.16 8,502
9/20/2018 3 PM EDT 1,062.50 926.17 8,537
9/20/2018 4 PM EDT 1,062.49 926.17 8,503
9/20/2018 5 PM EDT 1,062.48 926.18 8,536
9/20/2018 6 PM EDT 1,062.46 926.17 8,529
9/20/2018 7 PM EDT 1,062.45 926.18 8,532
9/20/2018 8 PM EDT 1,062.45 926.19 8,560
9/20/2018 9 PM EDT 1,062.44 926.17 8,515
9/20/2018 10 PM EDT 1,062.43 926.18 8,541
9/20/2018 11 PM EDT 1,062.42 926.18 8,523
9/21/2018 12 AM EDT 1,062.41 926.18 8,555
9/21/2018 1 AM EDT 1,062.40 926.18 8,528
9/21/2018 2 AM EDT 1,062.39 926.18 8,524
9/21/2018 3 AM EDT 1,062.41 923.95 3,906
9/21/2018 4 AM EDT 1,062.41 923.92 3,805
9/21/2018 5 AM EDT 1,062.41 923.91 3,798
9/21/2018 6 AM EDT 1,062.41 923.92 3,801
9/21/2018 7 AM EDT 1,062.42 923.93 3,831
9/21/2018 8 AM EDT 1,062.41 925.36 7,677
9/21/2018 9 AM EDT 1,062.40 926.09 8,522
9/21/2018 10 AM EDT 1,062.39 926.19 8,569
9/21/2018 11 AM EDT 1,062.38 926.19 8,536
9/21/2018 12 PM EDT 1,062.38 926.18 8,572
9/21/2018 1 PM EDT 1,062.36 926.22 8,632
9/21/2018 2 PM EDT 1,062.36 926.22 8,597
9/21/2018 3 PM EDT 1,062.35 926.21 8,606
9/21/2018 4 PM EDT 1,062.34 926.24 8,610
9/21/2018 5 PM EDT 1,062.31 926.20 8,610
9/21/2018 6 PM EDT 1,062.31 926.19 8,534
9/21/2018 7 PM EDT 1,062.30 926.18 8,524
9/21/2018 8 PM EDT 1,062.29 926.20 8,565
9/21/2018 9 PM EDT 1,062.27 926.18 8,560
9/21/2018 10 PM EDT 1,062.27 926.20 8,546
9/21/2018 11 PM EDT 1,062.26 926.20 8,572
9/22/2018 12 AM EDT 1,062.26 924.31 7,123
9/22/2018 1 AM EDT 1,062.26 923.93 3,814
9/22/2018 2 AM EDT 1,062.26 923.93 3,823
9/22/2018 3 AM EDT 1,062.25 923.92 3,812
9/22/2018 4 AM EDT 1,062.27 923.93 3,806
9/22/2018 5 AM EDT 1,062.28 923.93 3,806
9/22/2018 6 AM EDT 1,062.28 923.96 3,828
9/22/2018 7 AM EDT 1,062.26 926.03 7,991
9/22/2018 8 AM EDT 1,062.25 926.20 8,535
9/22/2018 9 AM EDT 1,062.25 926.21 8,537
9/22/2018 10 AM EDT 1,062.23 926.21 8,560
9/22/2018 11 AM EDT 1,062.22 926.22 8,541
9/22/2018 12 PM EDT 1,062.21 926.20 8,537
9/22/2018 1 PM EDT 1,062.21 926.20 8,523
9/22/2018 2 PM EDT 1,062.19 926.19 8,535
9/22/2018 3 PM EDT 1,062.19 926.21 8,534
9/22/2018 4 PM EDT 1,062.16 926.19 8,529
9/22/2018 5 PM EDT 1,062.14 926.20 8,537

Elevations are in feet above sea level. Discharges are in cubic feet per second and are reported at the end of the hour.